createdAt,value
2022-10-19T00:01:32.657Z,102541.41
2022-10-19T00:04:02.466Z,102540.50
2022-10-19T00:06:34.027Z,102542.22
2022-10-19T00:09:04.007Z,102540.44
2022-10-19T00:11:32.211Z,102528.13
2022-10-19T00:13:59.591Z,102541.25
2022-10-19T00:16:28.995Z,102543.88
2022-10-19T00:18:57.665Z,102550.91
2022-10-19T00:21:25.029Z,102555.38
2022-10-19T00:23:51.404Z,102550.97
2022-10-19T00:26:18.122Z,102556.19
2022-10-19T00:28:45.010Z,102552.66
2022-10-19T00:31:15.112Z,102552.66
2022-10-19T00:33:43.112Z,102550.94
2022-10-19T00:36:21.675Z,102557.16
2022-10-19T00:38:48.532Z,102565.03
2022-10-19T00:41:16.176Z,102564.19
2022-10-19T00:43:53.422Z,102566.00
2022-10-19T00:46:20.007Z,102564.22
2022-10-19T00:48:46.524Z,102568.53
2022-10-19T00:51:13.852Z,102571.16
2022-10-19T00:53:41.220Z,102582.69
2022-10-19T00:56:12.887Z,102578.44
2022-10-19T00:58:42.621Z,102569.72
2022-10-19T01:01:14.217Z,102575.78
2022-10-19T01:03:40.639Z,102564.28
2022-10-19T01:06:07.981Z,102577.38
2022-10-19T01:08:34.397Z,102571.13
2022-10-19T01:11:23.245Z,102570.34
2022-10-19T01:14:20.757Z,102575.56
2022-10-19T01:16:58.591Z,102576.41
2022-10-19T01:20:09.277Z,102567.63
2022-10-19T01:23:06.608Z,102572.91
2022-10-19T01:26:00.507Z,102572.91
2022-10-19T01:28:48.724Z,102569.41
2022-10-19T01:31:38.252Z,102562.44
2022-10-19T01:34:14.901Z,102567.69
2022-10-19T01:36:47.991Z,102558.06
2022-10-19T01:39:33.350Z,102567.78
2022-10-19T01:42:15.472Z,102566.03
2022-10-19T01:44:51.027Z,102573.88
2022-10-19T01:47:25.940Z,102580.97
2022-10-19T01:49:58.711Z,102587.16
2022-10-19T01:52:27.216Z,102574.81
2022-10-19T01:54:57.515Z,102574.81
2022-10-19T01:57:30.538Z,102571.31
2022-10-19T01:59:58.088Z,102578.34
2022-10-19T02:02:27.801Z,102572.19
2022-10-19T02:04:57.549Z,102567.78
2022-10-19T02:07:24.811Z,102571.31
2022-10-19T02:09:51.336Z,102570.50
2022-10-19T02:12:20.268Z,102564.38
2022-10-19T02:14:51.730Z,102568.84
2022-10-19T02:17:23.815Z,102573.28
2022-10-19T02:19:51.454Z,102573.31
2022-10-19T02:22:17.900Z,102577.72
2022-10-19T02:24:44.303Z,102567.25
2022-10-19T02:27:11.582Z,102576.03
2022-10-19T02:29:39.481Z,102567.25
2022-10-19T02:32:06.824Z,102570.81
2022-10-19T02:34:35.060Z,102569.97
2022-10-19T02:37:01.827Z,102563.84
2022-10-19T02:39:28.344Z,102570.00
2022-10-19T02:42:07.194Z,102567.44
2022-10-19T02:44:57.294Z,102567.47
2022-10-19T02:47:35.857Z,102570.94
2022-10-19T02:50:07.170Z,102572.69
2022-10-19T02:52:33.680Z,102579.72
2022-10-19T02:55:00.033Z,102571.88
2022-10-19T02:57:26.469Z,102576.34
2022-10-19T02:59:53.017Z,102572.78
2022-10-19T03:02:20.650Z,102572.75
2022-10-19T03:07:20.663Z,102570.09
2022-10-19T03:09:47.091Z,102573.59
2022-10-19T03:12:14.475Z,102573.59
2022-10-19T03:14:40.880Z,102576.22
2022-10-19T03:17:07.746Z,102578.84
2022-10-19T03:19:35.523Z,102581.50
2022-10-19T03:22:02.372Z,102587.72
2022-10-19T03:24:30.198Z,102591.28
2022-10-19T03:26:57.085Z,102596.59
2022-10-19T03:29:23.542Z,102600.16
2022-10-19T03:31:49.928Z,102601.09
2022-10-19T03:34:16.479Z,102609.06
2022-10-19T03:36:43.039Z,102604.69
2022-10-19T03:39:14.119Z,102599.41
2022-10-19T03:41:41.012Z,102610.81
2022-10-19T03:44:08.904Z,102610.81
2022-10-19T03:46:36.392Z,102611.69
2022-10-19T03:49:03.664Z,102608.19
2022-10-19T03:51:31.268Z,102613.44
2022-10-19T03:54:03.603Z,102614.31
2022-10-19T03:56:31.229Z,102622.13
2022-10-19T03:58:59.855Z,102616.06
2022-10-19T04:01:35.436Z,102620.44
2022-10-19T04:04:06.027Z,102631.00
2022-10-19T04:06:35.780Z,102628.38
2022-10-19T04:09:03.159Z,102631.88
2022-10-19T04:11:31.072Z,102635.34
2022-10-19T04:13:58.788Z,102636.19
2022-10-19T04:16:27.693Z,102635.31
2022-10-19T04:18:54.879Z,102635.31
2022-10-19T04:21:33.194Z,102640.63
2022-10-19T04:24:02.478Z,102640.63
2022-10-19T04:26:29.259Z,102639.75
2022-10-19T04:28:59.793Z,102638.03
2022-10-19T04:31:27.672Z,102640.63
2022-10-19T04:33:54.266Z,102645.03
2022-10-19T04:36:20.707Z,102647.66
2022-10-19T04:38:47.439Z,102639.78
2022-10-19T04:41:16.639Z,102644.19
2022-10-19T04:43:45.245Z,102647.72
2022-10-19T04:46:15.304Z,102643.34
2022-10-19T04:48:41.984Z,102647.72
2022-10-19T04:51:08.907Z,102657.38
2022-10-19T04:53:37.811Z,102660.00
2022-10-19T04:56:06.063Z,102662.66
2022-10-19T04:58:33.147Z,102660.00
2022-10-19T05:00:59.538Z,102657.38
2022-10-19T05:03:26.116Z,102664.41
2022-10-19T05:05:52.466Z,102659.97
2022-10-19T05:08:18.885Z,102650.34
2022-10-19T05:10:47.619Z,102653.00
2022-10-19T05:13:14.390Z,102654.75
2022-10-19T05:15:40.780Z,102658.28
2022-10-19T05:18:07.162Z,102667.91
2022-10-19T05:20:33.555Z,102657.38
2022-10-19T05:23:04.603Z,102665.28
2022-10-19T05:25:33.560Z,102657.34
2022-10-19T05:27:59.892Z,102658.25
2022-10-19T05:30:26.485Z,102664.41
2022-10-19T05:32:52.826Z,102662.69
2022-10-19T05:35:22.336Z,102651.28
2022-10-19T05:37:49.200Z,102653.97
2022-10-19T05:40:15.606Z,102656.59
2022-10-19T05:42:41.956Z,102657.53
2022-10-19T05:45:08.605Z,102647.84
2022-10-19T05:47:35.529Z,102651.38
2022-10-19T05:50:03.732Z,102652.19
2022-10-19T05:52:30.154Z,102651.25
2022-10-19T05:54:58.293Z,102653.00
2022-10-19T05:57:25.402Z,102655.59
2022-10-19T05:59:52.020Z,102650.38
2022-10-19T06:02:18.451Z,102660.91
2022-10-19T06:04:44.997Z,102665.28
2022-10-19T06:07:11.344Z,102656.50
2022-10-19T06:09:37.817Z,102652.09
2022-10-19T06:12:04.288Z,102660.00
2022-10-19T06:14:30.725Z,102668.81
2022-10-19T06:16:57.214Z,102667.06
2022-10-19T06:19:23.655Z,102670.53
2022-10-19T06:21:50.019Z,102666.16
2022-10-19T06:24:16.558Z,102667.94
2022-10-19T06:26:42.933Z,102668.78
2022-10-19T06:29:09.808Z,102665.22
2022-10-19T06:31:36.468Z,102660.78
2022-10-19T06:34:03.242Z,102664.22
2022-10-19T06:36:31.360Z,102658.88
2022-10-19T06:38:59.718Z,102661.47
2022-10-19T06:41:26.680Z,102654.38
2022-10-19T06:43:54.832Z,102653.47
2022-10-19T06:46:23.405Z,102661.44
2022-10-19T06:48:51.634Z,102657.97
2022-10-19T06:51:18.271Z,102656.25
2022-10-19T06:53:44.659Z,102655.47
2022-10-19T06:56:11.078Z,102654.63
2022-10-19T06:58:38.507Z,102656.41
2022-10-19T07:01:07.639Z,102662.66
2022-10-19T07:03:35.175Z,102665.31
2022-10-19T07:06:04.601Z,102674.13
2022-10-19T07:08:32.474Z,102676.81
2022-10-19T07:11:01.929Z,102677.72
2022-10-19T07:13:29.663Z,102673.34
2022-10-19T07:16:01.375Z,102676.06
2022-10-19T07:18:27.751Z,102681.34
2022-10-19T07:21:03.131Z,102686.66
2022-10-19T07:23:31.645Z,102685.75
2022-10-19T07:26:01.764Z,102687.53
2022-10-19T07:28:30.255Z,102684.03
2022-10-19T07:30:57.077Z,102696.31
2022-10-19T07:33:24.120Z,102697.22
2022-10-19T07:35:50.741Z,102693.69
2022-10-19T07:38:17.296Z,102705.97
2022-10-19T07:40:46.541Z,102704.28
2022-10-19T07:43:14.036Z,102705.06
2022-10-19T07:45:40.376Z,102715.59
2022-10-19T07:48:06.901Z,102714.72
2022-10-19T07:50:33.440Z,102718.22
2022-10-19T07:52:59.849Z,102720.88
2022-10-19T07:55:26.235Z,102722.53
2022-10-19T07:57:52.772Z,102726.91
2022-10-19T08:00:19.271Z,102723.41
2022-10-19T08:03:04.991Z,102727.78
2022-10-19T08:05:33.371Z,102726.84
2022-10-19T08:07:59.815Z,102728.63
2022-10-19T08:10:26.245Z,102728.63
2022-10-19T08:12:52.881Z,102727.72
2022-10-19T08:15:19.372Z,102729.44
2022-10-19T08:17:45.752Z,102728.53
2022-10-19T08:20:12.276Z,102729.38
2022-10-19T08:22:39.598Z,102728.44
2022-10-19T08:25:07.208Z,102728.44
2022-10-19T08:27:37.335Z,102726.66
2022-10-19T08:30:04.034Z,102725.78
2022-10-19T08:32:37.401Z,102724.88
2022-10-19T08:35:08.487Z,102724.00
2022-10-19T08:37:45.302Z,102731.78
2022-10-19T08:40:24.824Z,102738.59
2022-10-19T08:43:04.459Z,102745.44
2022-10-19T08:45:50.824Z,102748.75
2022-10-19T08:48:36.578Z,102743.28
2022-10-19T08:51:05.484Z,102745.72
2022-10-19T08:53:56.150Z,102748.31
2022-10-19T08:56:50.387Z,102740.31
2022-10-19T08:59:27.724Z,102750.69
2022-10-19T09:02:10.425Z,102752.09
2022-10-19T09:04:40.132Z,102753.31
2022-10-19T09:07:21.904Z,102751.13
2022-10-19T09:09:57.319Z,102755.31
2022-10-19T09:12:37.837Z,102757.00
2022-10-19T09:15:07.648Z,102759.31
2022-10-19T09:17:38.791Z,102753.69
2022-10-19T09:20:19.000Z,102760.53
2022-10-19T09:23:13.294Z,102758.66
2022-10-19T09:25:40.827Z,102752.19
2022-10-19T09:29:03.487Z,102756.56
2022-10-19T09:31:40.358Z,102753.03
2022-10-19T09:34:29.469Z,102759.53
2022-10-19T09:36:59.647Z,102763.31
2022-10-19T09:39:29.559Z,102762.81
2022-10-19T09:42:07.588Z,102761.34
2022-10-19T09:44:34.225Z,102761.31
2022-10-19T09:47:32.363Z,102761.13
2022-10-19T09:50:22.666Z,102766.50
2022-10-19T09:52:51.745Z,102764.03
2022-10-19T09:55:39.132Z,102762.31
2022-10-19T09:58:14.945Z,102765.63
2022-10-19T10:00:43.972Z,102767.31
2022-10-19T10:03:32.058Z,102759.91
2022-10-19T10:06:03.896Z,102763.81
2022-10-19T10:08:33.812Z,102762.00
2022-10-19T10:11:11.442Z,102753.06
2022-10-19T10:13:43.508Z,102750.66
2022-10-19T10:16:16.441Z,102739.75
2022-10-19T10:18:51.680Z,102745.00
2022-10-19T10:21:25.798Z,102734.78
2022-10-19T10:24:26.195Z,102739.84
2022-10-19T10:26:56.082Z,102753.44
2022-10-19T10:29:25.679Z,102758.06
2022-10-19T10:32:00.292Z,102758.63
2022-10-19T10:34:49.428Z,102765.19
2022-10-19T10:37:31.202Z,102771.72
2022-10-19T10:40:04.578Z,102768.81
2022-10-19T10:42:40.832Z,102764.44
2022-10-19T10:45:22.688Z,102758.63
2022-10-19T10:47:50.580Z,102752.59
2022-10-19T10:50:31.728Z,102751.19
2022-10-19T10:53:29.786Z,102737.81
2022-10-19T10:55:56.753Z,102731.16
2022-10-19T10:58:47.933Z,102724.69
2022-10-19T11:01:23.286Z,102721.44
2022-10-19T11:04:03.711Z,102723.03
2022-10-19T11:06:34.477Z,102720.72
2022-10-19T11:09:15.890Z,102712.16
2022-10-19T11:11:47.454Z,102713.19
2022-10-19T11:14:25.217Z,102721.19
2022-10-19T11:17:00.247Z,102713.53
2022-10-19T11:19:35.779Z,102710.09
2022-10-19T11:22:08.794Z,102711.91
2022-10-19T11:24:56.894Z,102717.00
2022-10-19T11:27:41.170Z,102703.75
2022-10-19T11:30:20.037Z,102689.47
2022-10-19T11:32:57.689Z,102690.91
2022-10-19T11:35:32.972Z,102698.22
2022-10-19T11:38:27.393Z,102703.97
2022-10-19T11:41:18.893Z,102702.94
2022-10-19T11:44:06.849Z,102697.69
2022-10-19T11:46:51.209Z,102700.50
2022-10-19T11:49:46.478Z,102692.06
2022-10-19T11:52:25.208Z,102691.38
2022-10-19T11:55:24.217Z,102689.44
2022-10-19T11:58:21.384Z,102680.03
2022-10-19T12:01:02.898Z,102661.72
2022-10-19T12:03:57.445Z,102647.53
2022-10-19T12:07:00.167Z,102643.41
2022-10-19T12:09:57.780Z,102642.50
2022-10-19T12:12:34.171Z,102634.81
2022-10-19T12:15:27.272Z,102634.25
2022-10-19T12:17:58.471Z,102629.50
2022-10-19T12:20:30.810Z,102623.19
2022-10-19T12:22:59.374Z,102623.75
2022-10-19T12:25:26.552Z,102621.41
2022-10-19T12:27:54.081Z,102611.81
2022-10-19T12:30:22.867Z,102607.88
2022-10-19T12:33:03.314Z,102601.22
2022-10-19T12:36:06.744Z,102596.16
2022-10-19T12:38:45.126Z,102593.34
2022-10-19T12:41:31.245Z,102591.34
2022-10-19T12:44:34.969Z,102593.31
2022-10-19T12:47:15.329Z,102594.44
2022-10-19T12:49:57.488Z,102591.94
2022-10-19T12:52:44.887Z,102592.78
2022-10-19T12:55:12.773Z,102589.81
2022-10-19T12:57:40.584Z,102580.91
2022-10-19T13:00:20.628Z,102580.75
2022-10-19T13:02:55.264Z,102578.50
2022-10-19T13:05:23.969Z,102577.25
2022-10-19T13:10:26.208Z,102571.22
2022-10-19T13:12:53.944Z,102575.50
2022-10-19T13:15:35.529Z,102583.09
2022-10-19T13:18:41.016Z,102572.69
2022-10-19T13:21:08.437Z,102574.31
2022-10-19T13:23:39.592Z,102571.84
2022-10-19T13:26:30.237Z,102583.09
2022-10-19T13:28:57.026Z,102569.66
2022-10-19T13:31:29.167Z,102575.47
2022-10-19T13:33:56.371Z,102565.47
2022-10-19T13:36:24.782Z,102562.44
2022-10-19T13:38:51.129Z,102566.06
2022-10-19T13:41:22.398Z,102562.25
2022-10-19T13:44:04.256Z,102562.28
2022-10-19T13:46:30.656Z,102565.50
2022-10-19T13:49:12.276Z,102565.13
2022-10-19T13:52:02.205Z,102572.72
2022-10-19T13:54:34.667Z,102569.56
2022-10-19T13:57:18.277Z,102564.13
2022-10-19T14:00:03.305Z,102559.22
2022-10-19T14:03:19.947Z,102553.56
2022-10-19T14:06:17.267Z,102558.03
2022-10-19T14:08:49.641Z,102554.94
2022-10-19T14:11:26.067Z,102558.31
2022-10-19T14:14:14.574Z,102553.38
2022-10-19T14:17:02.980Z,102559.69
2022-10-19T14:19:40.782Z,102565.78
2022-10-19T14:22:40.565Z,102574.94
2022-10-19T14:25:16.004Z,102572.63
2022-10-19T14:27:42.882Z,102584.09
2022-10-19T14:30:32.237Z,102575.69
2022-10-19T14:33:02.352Z,102581.53
2022-10-19T14:35:34.103Z,102582.94
2022-10-19T14:38:01.256Z,102570.16
2022-10-19T14:40:37.565Z,102576.44
2022-10-19T14:43:20.744Z,102576.97
2022-10-19T14:46:03.221Z,102581.06
2022-10-19T14:48:29.804Z,102586.25
2022-10-19T14:50:57.760Z,102582.00
2022-10-19T14:53:42.347Z,102575.19
2022-10-19T14:56:19.898Z,102580.88
2022-10-19T14:58:55.203Z,102580.25
2022-10-19T15:01:21.941Z,102577.75
2022-10-19T15:03:49.971Z,102583.97
2022-10-19T15:06:24.690Z,102576.06
2022-10-19T15:09:30.455Z,102569.97
2022-10-19T15:12:14.251Z,102573.09
2022-10-19T15:14:41.469Z,102572.75
2022-10-19T15:17:28.144Z,102570.59
2022-10-19T15:19:56.066Z,102568.28
2022-10-19T15:22:31.909Z,102565.13
2022-10-19T15:25:00.631Z,102567.13
2022-10-19T15:27:39.178Z,102562.25
2022-10-19T15:30:17.807Z,102560.97
2022-10-19T15:32:46.389Z,102564.75
2022-10-19T15:35:23.064Z,102568.69
2022-10-19T15:37:50.318Z,102571.63
2022-10-19T15:40:25.792Z,102576.38
2022-10-19T15:42:52.483Z,102564.28
2022-10-19T15:45:35.837Z,102564.72
2022-10-19T15:48:26.335Z,102570.31
2022-10-19T15:50:54.085Z,102567.91
2022-10-19T15:53:21.701Z,102569.13
2022-10-19T15:55:48.919Z,102569.34
2022-10-19T15:58:15.852Z,102566.06
2022-10-19T16:00:42.502Z,102560.97
2022-10-19T16:03:09.900Z,102562.06
2022-10-19T16:05:36.671Z,102559.72
2022-10-19T16:08:03.576Z,102560.81
2022-10-19T16:10:29.945Z,102561.03
2022-10-19T16:12:56.320Z,102568.38
2022-10-19T16:15:23.480Z,102561.63
2022-10-19T16:17:53.344Z,102563.63
2022-10-19T16:20:20.283Z,102555.91
2022-10-19T16:22:47.975Z,102564.91
2022-10-19T16:25:15.127Z,102565.97
2022-10-19T16:27:41.886Z,102555.56
2022-10-19T16:30:09.137Z,102561.84
2022-10-19T16:32:35.572Z,102561.97
2022-10-19T16:35:02.120Z,102572.69
2022-10-19T16:37:28.536Z,102567.59
2022-10-19T16:39:55.064Z,102558.97
2022-10-19T16:42:22.297Z,102561.75
2022-10-19T16:45:20.319Z,102566.31
2022-10-19T16:48:13.364Z,102559.47
2022-10-19T16:51:27.716Z,102558.72
2022-10-19T16:54:00.014Z,102557.09
2022-10-19T16:56:28.929Z,102562.53
2022-10-19T16:58:59.838Z,102559.13
2022-10-19T17:01:27.437Z,102556.66
2022-10-19T17:03:55.010Z,102557.66
2022-10-19T17:06:21.913Z,102559.50
2022-10-19T17:11:38.238Z,102561.59
2022-10-19T17:14:07.605Z,102571.38
2022-10-19T17:16:36.083Z,102575.00
2022-10-19T17:19:04.269Z,102576.94
2022-10-19T17:21:33.178Z,102573.59
2022-10-19T17:24:01.842Z,102567.50
2022-10-19T17:26:34.302Z,102566.72
2022-10-19T17:29:01.282Z,102567.69
2022-10-19T17:31:28.927Z,102565.19
2022-10-19T17:33:55.721Z,102560.94
2022-10-19T17:36:25.509Z,102571.50
2022-10-19T17:38:53.507Z,102568.13
2022-10-19T17:41:22.023Z,102569.06
2022-10-19T17:43:53.015Z,102576.19
2022-10-19T17:46:28.929Z,102578.00
2022-10-19T17:48:57.312Z,102571.09
2022-10-19T17:51:27.393Z,102574.66
2022-10-19T17:54:01.336Z,102573.00
2022-10-19T17:56:28.786Z,102573.06
2022-10-19T17:58:57.330Z,102570.53
2022-10-19T18:01:24.636Z,102580.28
2022-10-19T18:03:51.421Z,102580.34
2022-10-19T18:06:20.747Z,102585.72
2022-10-19T18:08:52.051Z,102577.94
2022-10-19T18:11:21.521Z,102581.50
2022-10-19T18:13:49.528Z,102581.63
2022-10-19T18:16:23.001Z,102597.47
2022-10-19T18:18:51.107Z,102599.31
2022-10-19T18:21:20.613Z,102599.38
2022-10-19T18:23:47.691Z,102600.28
2022-10-19T18:26:16.825Z,102597.72
2022-10-19T18:28:43.535Z,102599.50
2022-10-19T18:31:14.208Z,102606.59
2022-10-19T18:33:40.925Z,102605.75
2022-10-19T18:36:09.175Z,102606.66
2022-10-19T18:38:37.137Z,102613.72
2022-10-19T18:41:11.614Z,102605.00
2022-10-19T18:43:39.264Z,102615.56
2022-10-19T18:46:05.992Z,102613.00
2022-10-19T18:48:32.522Z,102606.00
2022-10-19T18:51:03.470Z,102605.19
2022-10-19T18:53:30.295Z,102603.50
2022-10-19T18:55:58.247Z,102606.19
2022-10-19T18:58:25.347Z,102608.88
2022-10-19T19:01:06.124Z,102599.34
2022-10-19T19:03:33.298Z,102607.28
2022-10-19T19:06:01.423Z,102602.97
2022-10-19T19:08:28.859Z,102591.63
2022-10-19T19:10:56.447Z,102598.69
2022-10-19T19:13:23.812Z,102592.56
2022-10-19T19:15:59.942Z,102583.84
2022-10-19T19:18:27.332Z,102589.09
2022-10-19T19:20:53.918Z,102586.50
2022-10-19T19:23:20.315Z,102571.69
2022-10-19T19:25:46.842Z,102576.09
2022-10-19T19:28:13.214Z,102579.59
2022-10-19T19:30:44.416Z,102569.13
2022-10-19T19:33:11.254Z,102568.22
2022-10-19T19:35:48.331Z,102563.88
2022-10-19T19:38:15.524Z,102566.53
2022-10-19T19:40:44.687Z,102564.84
2022-10-19T19:43:12.662Z,102556.97
2022-10-19T19:45:40.008Z,102555.25
2022-10-19T19:48:09.208Z,102560.56
2022-10-19T19:50:37.090Z,102557.13
2022-10-19T19:53:04.845Z,102554.56
2022-10-19T19:55:36.777Z,102550.22
2022-10-19T19:58:05.605Z,102551.16
2022-10-19T20:00:32.400Z,102545.09
2022-10-19T20:02:59.059Z,102548.59
2022-10-19T20:05:26.991Z,102538.97
2022-10-19T20:07:53.474Z,102538.09
2022-10-19T20:10:20.297Z,102532.81
2022-10-19T20:12:47.231Z,102531.09
2022-10-19T20:15:16.299Z,102527.56
2022-10-19T20:17:44.088Z,102521.47
2022-10-19T20:20:12.254Z,102517.09
2022-10-19T20:22:39.040Z,102512.72
2022-10-19T20:25:06.409Z,102514.47
2022-10-19T20:27:36.241Z,102519.72
2022-10-19T20:30:03.673Z,102510.09
2022-10-19T20:32:30.920Z,102507.50
2022-10-19T20:34:57.571Z,102510.13
2022-10-19T20:37:24.105Z,102511.88
2022-10-19T20:39:50.584Z,102510.16
2022-10-19T20:42:18.732Z,102509.28
2022-10-19T20:44:45.436Z,102511.03
2022-10-19T20:47:11.856Z,102510.16
2022-10-19T20:49:38.535Z,102511.94
2022-10-19T20:52:04.982Z,102510.19
2022-10-19T20:54:31.923Z,102513.72
2022-10-19T20:56:59.060Z,102502.34
2022-10-19T20:59:27.651Z,102513.78
2022-10-19T21:01:56.160Z,102502.41
2022-10-19T21:04:23.887Z,102508.56
2022-10-19T21:06:51.720Z,102499.84
2022-10-19T21:09:21.136Z,102501.59
2022-10-19T21:11:50.000Z,102500.72
2022-10-19T21:14:27.223Z,102498.13
2022-10-19T21:16:59.607Z,102494.59
2022-10-19T21:19:28.377Z,102489.34
2022-10-19T21:21:57.682Z,102492.88
2022-10-19T21:24:26.584Z,102493.78
2022-10-19T21:26:53.438Z,102493.78
2022-10-19T21:29:19.989Z,102483.25
2022-10-19T21:31:49.240Z,102486.78
2022-10-19T21:34:18.972Z,102478.94
2022-10-19T21:36:45.418Z,102480.69
2022-10-19T21:39:11.956Z,102474.56
2022-10-19T21:41:38.499Z,102468.44
2022-10-19T21:44:05.114Z,102466.72
2022-10-19T21:46:31.614Z,102467.63
2022-10-19T21:48:58.131Z,102466.78
2022-10-19T21:51:32.115Z,102472.94
2022-10-19T21:53:59.154Z,102469.44
2022-10-19T21:56:25.686Z,102464.25
2022-10-19T21:58:53.147Z,102463.34
2022-10-19T22:01:22.134Z,102455.53
2022-10-19T22:03:48.641Z,102452.06
2022-10-19T22:06:15.599Z,102458.19
2022-10-19T22:08:46.000Z,102452.97
2022-10-19T22:11:13.845Z,102457.38
2022-10-19T22:13:41.020Z,102450.38
2022-10-19T22:16:14.162Z,102454.78
2022-10-19T22:18:40.796Z,102442.53
2022-10-19T22:21:09.886Z,102451.31
2022-10-19T22:23:36.516Z,102447.84
2022-10-19T22:26:11.799Z,102453.13
2022-10-19T22:28:38.222Z,102457.50
2022-10-19T22:31:04.739Z,102447.91
2022-10-19T22:33:31.182Z,102455.75
2022-10-19T22:35:59.605Z,102457.53
2022-10-19T22:38:27.422Z,102447.03
2022-10-19T22:40:53.785Z,102453.19
2022-10-19T22:43:20.602Z,102447.97
2022-10-19T22:45:48.354Z,102453.22
2022-10-19T22:48:16.348Z,102453.22
2022-10-19T22:50:43.089Z,102441.03
2022-10-19T22:53:09.721Z,102435.81
2022-10-19T22:55:36.196Z,102424.44
2022-10-19T22:58:03.870Z,102415.72
2022-10-19T23:00:30.755Z,102407.88
2022-10-19T23:02:57.595Z,102403.50
2022-10-19T23:05:24.269Z,102405.25
2022-10-19T23:07:50.781Z,102408.78
2022-10-19T23:10:17.673Z,102394.84
2022-10-19T23:12:44.159Z,102393.97
2022-10-19T23:15:10.699Z,102393.13
2022-10-19T23:17:37.563Z,102409.75
2022-10-19T23:20:04.593Z,102415.00
2022-10-19T23:22:31.291Z,102415.03
2022-10-19T23:24:57.668Z,102403.66
2022-10-19T23:27:24.191Z,102396.66
2022-10-19T23:29:50.633Z,102387.94
2022-10-19T23:32:17.164Z,102387.97
2022-10-19T23:34:46.011Z,102373.13
2022-10-19T23:37:14.800Z,102381.00
2022-10-19T23:39:41.189Z,102377.53
2022-10-19T23:42:07.714Z,102380.16
2022-10-19T23:44:34.181Z,102374.97
2022-10-19T23:47:00.528Z,102364.47
2022-10-19T23:49:26.922Z,102365.38
2022-10-19T23:51:53.387Z,102357.50
2022-10-19T23:54:19.839Z,102354.00
2022-10-19T23:56:46.384Z,102368.84
2022-10-19T23:59:12.978Z,102364.50
